sensor_id;sensor_type;location;lat;lon;timestamp;P1;durP1;ratioP1;P2;durP2;ratioP2
28335;SDS011;15592;53.656;7.276;2024-03-22T00:02:20;82.60;;;45.70;;
28335;SDS011;15592;53.656;7.276;2024-03-22T00:04:46;78.32;;;44.35;;
28335;SDS011;15592;53.656;7.276;2024-03-22T00:07:12;80.85;;;44.42;;
28335;SDS011;15592;53.656;7.276;2024-03-22T00:09:37;77.82;;;45.00;;
28335;SDS011;15592;53.656;7.276;2024-03-22T00:12:03;82.68;;;44.92;;
28335;SDS011;15592;53.656;7.276;2024-03-22T00:14:29;83.63;;;46.03;;
28335;SDS011;15592;53.656;7.276;2024-03-22T00:16:54;83.05;;;43.50;;
28335;SDS011;15592;53.656;7.276;2024-03-22T00:19:20;76.88;;;43.53;;
28335;SDS011;15592;53.656;7.276;2024-03-22T00:21:49;81.85;;;45.50;;
28335;SDS011;15592;53.656;7.276;2024-03-22T00:24:14;77.40;;;43.20;;
28335;SDS011;15592;53.656;7.276;2024-03-22T00:26:40;84.18;;;47.03;;
28335;SDS011;15592;53.656;7.276;2024-03-22T00:29:06;82.15;;;45.40;;
28335;SDS011;15592;53.656;7.276;2024-03-22T00:31:31;85.85;;;46.05;;
28335;SDS011;15592;53.656;7.276;2024-03-22T00:33:57;78.50;;;44.08;;
28335;SDS011;15592;53.656;7.276;2024-03-22T00:36:23;86.50;;;47.30;;
28335;SDS011;15592;53.656;7.276;2024-03-22T00:38:49;78.50;;;43.45;;
28335;SDS011;15592;53.656;7.276;2024-03-22T00:41:14;84.95;;;43.63;;
28335;SDS011;15592;53.656;7.276;2024-03-22T00:43:46;80.63;;;45.38;;
28335;SDS011;15592;53.656;7.276;2024-03-22T00:49:05;80.63;;;42.50;;
28335;SDS011;15592;53.656;7.276;2024-03-22T00:51:39;78.60;;;43.53;;
28335;SDS011;15592;53.656;7.276;2024-03-22T00:54:17;83.60;;;45.45;;
28335;SDS011;15592;53.656;7.276;2024-03-22T00:56:55;81.38;;;45.80;;
28335;SDS011;15592;53.656;7.276;2024-03-22T00:59:21;78.03;;;42.78;;
28335;SDS011;15592;53.656;7.276;2024-03-22T01:02:10;96.07;;;48.33;;
28335;SDS011;15592;53.656;7.276;2024-03-22T01:04:58;75.03;;;42.83;;
28335;SDS011;15592;53.656;7.276;2024-03-22T01:07:33;76.15;;;41.92;;
28335;SDS011;15592;53.656;7.276;2024-03-22T01:10:05;77.68;;;43.05;;
28335;SDS011;15592;53.656;7.276;2024-03-22T01:12:40;73.70;;;41.57;;
28335;SDS011;15592;53.656;7.276;2024-03-22T01:15:06;79.78;;;42.67;;
28335;SDS011;15592;53.656;7.276;2024-03-22T01:17:35;72.57;;;40.90;;
28335;SDS011;15592;53.656;7.276;2024-03-22T01:20:01;77.00;;;41.53;;
28335;SDS011;15592;53.656;7.276;2024-03-22T01:22:45;72.15;;;41.60;;
28335;SDS011;15592;53.656;7.276;2024-03-22T01:25:13;73.43;;;41.35;;
28335;SDS011;15592;53.656;7.276;2024-03-22T01:27:39;74.15;;;40.38;;
28335;SDS011;15592;53.656;7.276;2024-03-22T01:30:05;74.38;;;40.45;;
28335;SDS011;15592;53.656;7.276;2024-03-22T01:32:37;81.72;;;41.10;;
28335;SDS011;15592;53.656;7.276;2024-03-22T01:35:10;73.10;;;39.83;;
28335;SDS011;15592;53.656;7.276;2024-03-22T01:37:38;72.00;;;39.45;;
28335;SDS011;15592;53.656;7.276;2024-03-22T01:40:07;76.68;;;42.38;;
28335;SDS011;15592;53.656;7.276;2024-03-22T01:42:33;67.95;;;38.83;;
28335;SDS011;15592;53.656;7.276;2024-03-22T01:44:59;72.15;;;38.85;;
28335;SDS011;15592;53.656;7.276;2024-03-22T01:47:24;69.72;;;39.70;;
28335;SDS011;15592;53.656;7.276;2024-03-22T01:49:51;74.97;;;40.70;;
28335;SDS011;15592;53.656;7.276;2024-03-22T01:52:22;72.00;;;38.50;;
28335;SDS011;15592;53.656;7.276;2024-03-22T01:54:49;74.47;;;41.00;;
28335;SDS011;15592;53.656;7.276;2024-03-22T01:57:32;77.55;;;41.55;;
28335;SDS011;15592;53.656;7.276;2024-03-22T01:59:59;83.22;;;41.55;;
28335;SDS011;15592;53.656;7.276;2024-03-22T02:02:37;82.18;;;43.83;;
28335;SDS011;15592;53.656;7.276;2024-03-22T02:05:47;72.18;;;39.58;;
28335;SDS011;15592;53.656;7.276;2024-03-22T02:08:13;79.45;;;42.58;;
28335;SDS011;15592;53.656;7.276;2024-03-22T02:10:44;82.05;;;42.38;;
28335;SDS011;15592;53.656;7.276;2024-03-22T02:13:19;82.47;;;44.53;;
28335;SDS011;15592;53.656;7.276;2024-03-22T02:15:47;83.53;;;44.75;;
28335;SDS011;15592;53.656;7.276;2024-03-22T02:18:15;80.18;;;42.50;;
28335;SDS011;15592;53.656;7.276;2024-03-22T02:20:41;84.72;;;44.50;;
28335;SDS011;15592;53.656;7.276;2024-03-22T02:23:06;86.47;;;44.67;;
28335;SDS011;15592;53.656;7.276;2024-03-22T02:25:32;86.97;;;45.13;;
28335;SDS011;15592;53.656;7.276;2024-03-22T02:27:58;89.78;;;45.45;;
28335;SDS011;15592;53.656;7.276;2024-03-22T02:30:25;82.35;;;44.40;;
28335;SDS011;15592;53.656;7.276;2024-03-22T02:32:51;76.15;;;40.78;;
28335;SDS011;15592;53.656;7.276;2024-03-22T02:35:17;74.18;;;40.13;;
28335;SDS011;15592;53.656;7.276;2024-03-22T02:37:42;88.25;;;46.40;;
28335;SDS011;15592;53.656;7.276;2024-03-22T02:40:09;88.07;;;46.30;;
28335;SDS011;15592;53.656;7.276;2024-03-22T02:42:35;87.38;;;45.83;;
28335;SDS011;15592;53.656;7.276;2024-03-22T02:45:01;82.57;;;43.53;;
28335;SDS011;15592;53.656;7.276;2024-03-22T02:47:27;77.43;;;41.53;;
28335;SDS011;15592;53.656;7.276;2024-03-22T02:49:52;77.13;;;41.97;;
28335;SDS011;15592;53.656;7.276;2024-03-22T02:52:18;87.70;;;44.00;;
28335;SDS011;15592;53.656;7.276;2024-03-22T02:54:46;89.00;;;44.92;;
28335;SDS011;15592;53.656;7.276;2024-03-22T02:57:12;93.65;;;47.42;;
28335;SDS011;15592;53.656;7.276;2024-03-22T02:59:38;91.72;;;48.00;;
28335;SDS011;15592;53.656;7.276;2024-03-22T03:02:03;100.72;;;49.13;;
28335;SDS011;15592;53.656;7.276;2024-03-22T03:04:29;96.68;;;49.70;;
28335;SDS011;15592;53.656;7.276;2024-03-22T03:06:55;93.25;;;48.83;;
28335;SDS011;15592;53.656;7.276;2024-03-22T03:09:21;108.18;;;51.90;;
28335;SDS011;15592;53.656;7.276;2024-03-22T03:11:46;101.78;;;49.03;;
28335;SDS011;15592;53.656;7.276;2024-03-22T03:14:12;103.90;;;49.50;;
28335;SDS011;15592;53.656;7.276;2024-03-22T03:16:37;96.30;;;50.13;;
28335;SDS011;15592;53.656;7.276;2024-03-22T03:19:03;100.13;;;49.28;;
28335;SDS011;15592;53.656;7.276;2024-03-22T03:21:29;93.28;;;48.45;;
28335;SDS011;15592;53.656;7.276;2024-03-22T03:23:54;92.72;;;48.85;;
28335;SDS011;15592;53.656;7.276;2024-03-22T03:26:20;100.78;;;49.95;;
28335;SDS011;15592;53.656;7.276;2024-03-22T03:28:45;91.97;;;46.85;;
28335;SDS011;15592;53.656;7.276;2024-03-22T03:31:11;88.80;;;46.85;;
28335;SDS011;15592;53.656;7.276;2024-03-22T03:33:37;91.07;;;45.03;;
28335;SDS011;15592;53.656;7.276;2024-03-22T03:36:02;95.00;;;47.13;;
28335;SDS011;15592;53.656;7.276;2024-03-22T03:38:28;87.50;;;44.90;;
28335;SDS011;15592;53.656;7.276;2024-03-22T03:40:54;97.35;;;50.13;;
28335;SDS011;15592;53.656;7.276;2024-03-22T03:43:19;100.78;;;48.22;;
28335;SDS011;15592;53.656;7.276;2024-03-22T03:45:45;103.65;;;48.05;;
28335;SDS011;15592;53.656;7.276;2024-03-22T03:48:11;100.55;;;49.42;;
28335;SDS011;15592;53.656;7.276;2024-03-22T03:50:36;95.97;;;48.22;;
28335;SDS011;15592;53.656;7.276;2024-03-22T03:53:02;99.28;;;48.10;;
28335;SDS011;15592;53.656;7.276;2024-03-22T03:55:27;95.28;;;48.08;;
28335;SDS011;15592;53.656;7.276;2024-03-22T03:57:53;103.43;;;49.67;;
28335;SDS011;15592;53.656;7.276;2024-03-22T04:00:19;104.13;;;50.90;;
28335;SDS011;15592;53.656;7.276;2024-03-22T04:02:45;98.85;;;48.75;;
28335;SDS011;15592;53.656;7.276;2024-03-22T04:05:11;95.05;;;46.42;;
28335;SDS011;15592;53.656;7.276;2024-03-22T04:07:37;97.40;;;46.97;;
28335;SDS011;15592;53.656;7.276;2024-03-22T04:10:04;101.70;;;49.47;;
28335;SDS011;15592;53.656;7.276;2024-03-22T04:12:31;92.63;;;46.63;;
28335;SDS011;15592;53.656;7.276;2024-03-22T04:14:56;94.93;;;46.03;;
28335;SDS011;15592;53.656;7.276;2024-03-22T04:17:22;90.80;;;43.47;;
28335;SDS011;15592;53.656;7.276;2024-03-22T04:19:49;95.20;;;46.67;;
28335;SDS011;15592;53.656;7.276;2024-03-22T04:22:15;91.88;;;45.85;;
28335;SDS011;15592;53.656;7.276;2024-03-22T04:24:40;97.50;;;43.30;;
28335;SDS011;15592;53.656;7.276;2024-03-22T04:27:06;87.40;;;43.47;;
28335;SDS011;15592;53.656;7.276;2024-03-22T04:29:32;91.13;;;43.53;;
28335;SDS011;15592;53.656;7.276;2024-03-22T04:31:58;94.85;;;44.42;;
28335;SDS011;15592;53.656;7.276;2024-03-22T04:34:24;105.68;;;47.28;;
28335;SDS011;15592;53.656;7.276;2024-03-22T04:36:50;99.35;;;45.88;;
28335;SDS011;15592;53.656;7.276;2024-03-22T04:39:17;100.95;;;45.63;;
28335;SDS011;15592;53.656;7.276;2024-03-22T04:41:44;99.63;;;45.13;;
28335;SDS011;15592;53.656;7.276;2024-03-22T04:44:09;93.95;;;43.40;;
28335;SDS011;15592;53.656;7.276;2024-03-22T04:46:35;98.00;;;44.28;;
28335;SDS011;15592;53.656;7.276;2024-03-22T04:49:01;93.82;;;44.03;;
28335;SDS011;15592;53.656;7.276;2024-03-22T04:51:27;91.22;;;43.28;;
28335;SDS011;15592;53.656;7.276;2024-03-22T04:53:52;101.55;;;45.67;;
28335;SDS011;15592;53.656;7.276;2024-03-22T04:56:18;90.13;;;42.50;;
28335;SDS011;15592;53.656;7.276;2024-03-22T04:58:52;94.43;;;44.13;;
28335;SDS011;15592;53.656;7.276;2024-03-22T05:01:39;84.57;;;39.60;;
28335;SDS011;15592;53.656;7.276;2024-03-22T05:04:11;83.13;;;40.05;;
28335;SDS011;15592;53.656;7.276;2024-03-22T05:06:57;88.70;;;39.80;;
28335;SDS011;15592;53.656;7.276;2024-03-22T05:09:26;91.47;;;42.33;;
28335;SDS011;15592;53.656;7.276;2024-03-22T05:15:52;92.88;;;43.10;;
28335;SDS011;15592;53.656;7.276;2024-03-22T05:19:20;94.00;;;41.25;;
28335;SDS011;15592;53.656;7.276;2024-03-22T05:21:55;101.85;;;45.28;;
28335;SDS011;15592;53.656;7.276;2024-03-22T05:34:40;98.65;;;42.33;;
28335;SDS011;15592;53.656;7.276;2024-03-22T05:53:26;96.70;;;43.20;;
28335;SDS011;15592;53.656;7.276;2024-03-22T05:55:58;111.63;;;46.92;;
28335;SDS011;15592;53.656;7.276;2024-03-22T05:58:33;110.45;;;47.53;;
28335;SDS011;15592;53.656;7.276;2024-03-22T06:04:41;115.82;;;45.50;;
28335;SDS011;15592;53.656;7.276;2024-03-22T06:07:06;115.22;;;44.95;;
28335;SDS011;15592;53.656;7.276;2024-03-22T06:09:35;96.88;;;43.78;;
28335;SDS011;15592;53.656;7.276;2024-03-22T06:12:23;97.53;;;43.28;;
28335;SDS011;15592;53.656;7.276;2024-03-22T06:14:49;94.35;;;41.65;;
28335;SDS011;15592;53.656;7.276;2024-03-22T06:17:49;87.68;;;40.97;;
28335;SDS011;15592;53.656;7.276;2024-03-22T06:23:35;90.20;;;40.60;;
28335;SDS011;15592;53.656;7.276;2024-03-22T06:26:45;100.10;;;41.22;;
28335;SDS011;15592;53.656;7.276;2024-03-22T06:29:26;99.78;;;39.55;;
28335;SDS011;15592;53.656;7.276;2024-03-22T06:31:52;88.43;;;37.75;;
28335;SDS011;15592;53.656;7.276;2024-03-22T06:34:17;87.63;;;36.45;;
28335;SDS011;15592;53.656;7.276;2024-03-22T06:36:43;90.25;;;37.00;;
28335;SDS011;15592;53.656;7.276;2024-03-22T06:39:19;85.55;;;34.85;;
28335;SDS011;15592;53.656;7.276;2024-03-22T06:41:45;84.32;;;34.95;;
28335;SDS011;15592;53.656;7.276;2024-03-22T06:44:10;85.50;;;32.60;;
28335;SDS011;15592;53.656;7.276;2024-03-22T06:46:37;73.13;;;30.95;;
28335;SDS011;15592;53.656;7.276;2024-03-22T06:49:03;69.03;;;27.67;;
28335;SDS011;15592;53.656;7.276;2024-03-22T06:51:28;71.97;;;28.52;;
28335;SDS011;15592;53.656;7.276;2024-03-22T06:53:54;72.80;;;31.63;;
28335;SDS011;15592;53.656;7.276;2024-03-22T06:56:19;80.05;;;33.53;;
28335;SDS011;15592;53.656;7.276;2024-03-22T06:58:46;81.97;;;34.00;;
28335;SDS011;15592;53.656;7.276;2024-03-22T07:01:14;72.85;;;31.95;;
28335;SDS011;15592;53.656;7.276;2024-03-22T07:03:44;75.93;;;32.83;;
28335;SDS011;15592;53.656;7.276;2024-03-22T07:06:10;76.88;;;30.17;;
28335;SDS011;15592;53.656;7.276;2024-03-22T07:08:39;66.45;;;27.75;;
28335;SDS011;15592;53.656;7.276;2024-03-22T07:11:05;66.97;;;26.80;;
28335;SDS011;15592;53.656;7.276;2024-03-22T07:13:31;55.10;;;25.13;;
28335;SDS011;15592;53.656;7.276;2024-03-22T07:15:57;60.17;;;25.10;;
28335;SDS011;15592;53.656;7.276;2024-03-22T07:18:32;63.78;;;26.40;;
28335;SDS011;15592;53.656;7.276;2024-03-22T07:20:57;66.78;;;26.08;;
28335;SDS011;15592;53.656;7.276;2024-03-22T07:23:26;64.57;;;27.52;;
28335;SDS011;15592;53.656;7.276;2024-03-22T07:25:52;65.88;;;25.70;;
28335;SDS011;15592;53.656;7.276;2024-03-22T07:28:17;58.42;;;26.80;;
28335;SDS011;15592;53.656;7.276;2024-03-22T07:30:43;62.80;;;27.15;;
28335;SDS011;15592;53.656;7.276;2024-03-22T07:33:12;62.83;;;25.88;;
28335;SDS011;15592;53.656;7.276;2024-03-22T07:35:42;60.22;;;26.67;;
28335;SDS011;15592;53.656;7.276;2024-03-22T07:38:08;62.25;;;26.17;;
28335;SDS011;15592;53.656;7.276;2024-03-22T07:40:35;65.07;;;26.25;;
28335;SDS011;15592;53.656;7.276;2024-03-22T07:43:00;59.72;;;25.75;;
28335;SDS011;15592;53.656;7.276;2024-03-22T07:45:32;53.97;;;24.13;;
28335;SDS011;15592;53.656;7.276;2024-03-22T07:47:59;53.20;;;23.17;;
28335;SDS011;15592;53.656;7.276;2024-03-22T07:50:25;56.22;;;25.30;;
28335;SDS011;15592;53.656;7.276;2024-03-22T07:52:50;59.35;;;25.33;;
28335;SDS011;15592;53.656;7.276;2024-03-22T07:55:16;56.03;;;24.52;;
28335;SDS011;15592;53.656;7.276;2024-03-22T07:57:42;54.67;;;24.45;;
28335;SDS011;15592;53.656;7.276;2024-03-22T08:00:08;48.50;;;23.40;;
28335;SDS011;15592;53.656;7.276;2024-03-22T08:02:41;44.67;;;22.50;;
28335;SDS011;15592;53.656;7.276;2024-03-22T08:05:07;51.13;;;22.35;;
28335;SDS011;15592;53.656;7.276;2024-03-22T08:07:53;44.50;;;22.20;;
28335;SDS011;15592;53.656;7.276;2024-03-22T08:10:30;40.10;;;20.38;;
28335;SDS011;15592;53.656;7.276;2024-03-22T08:13:02;47.55;;;21.45;;
28335;SDS011;15592;53.656;7.276;2024-03-22T08:15:31;42.65;;;19.58;;
28335;SDS011;15592;53.656;7.276;2024-03-22T08:17:57;45.13;;;20.92;;
28335;SDS011;15592;53.656;7.276;2024-03-22T08:20:25;46.25;;;20.98;;
28335;SDS011;15592;53.656;7.276;2024-03-22T08:23:12;39.95;;;18.65;;
28335;SDS011;15592;53.656;7.276;2024-03-22T08:25:39;40.70;;;17.02;;
28335;SDS011;15592;53.656;7.276;2024-03-22T08:28:08;35.90;;;16.85;;
28335;SDS011;15592;53.656;7.276;2024-03-22T08:30:36;35.85;;;15.75;;
28335;SDS011;15592;53.656;7.276;2024-03-22T08:33:11;33.58;;;16.52;;
28335;SDS011;15592;53.656;7.276;2024-03-22T08:38:29;28.35;;;14.40;;
28335;SDS011;15592;53.656;7.276;2024-03-22T08:40:54;30.55;;;13.88;;
28335;SDS011;15592;53.656;7.276;2024-03-22T08:43:23;29.90;;;14.13;;
28335;SDS011;15592;53.656;7.276;2024-03-22T08:45:50;28.50;;;13.35;;
28335;SDS011;15592;53.656;7.276;2024-03-22T08:48:16;27.42;;;12.70;;
28335;SDS011;15592;53.656;7.276;2024-03-22T08:50:42;29.50;;;12.90;;
28335;SDS011;15592;53.656;7.276;2024-03-22T08:53:09;27.10;;;12.60;;
28335;SDS011;15592;53.656;7.276;2024-03-22T08:55:34;24.70;;;12.75;;
28335;SDS011;15592;53.656;7.276;2024-03-22T08:58:00;24.25;;;12.60;;
28335;SDS011;15592;53.656;7.276;2024-03-22T09:00:26;24.00;;;12.38;;
28335;SDS011;15592;53.656;7.276;2024-03-22T09:02:51;29.02;;;12.57;;
28335;SDS011;15592;53.656;7.276;2024-03-22T09:05:17;24.85;;;11.00;;
28335;SDS011;15592;53.656;7.276;2024-03-22T09:07:43;26.45;;;12.60;;
28335;SDS011;15592;53.656;7.276;2024-03-22T09:10:09;22.67;;;11.32;;
28335;SDS011;15592;53.656;7.276;2024-03-22T09:12:36;24.25;;;11.68;;
28335;SDS011;15592;53.656;7.276;2024-03-22T09:15:02;21.42;;;11.88;;
28335;SDS011;15592;53.656;7.276;2024-03-22T09:17:28;20.40;;;10.65;;
28335;SDS011;15592;53.656;7.276;2024-03-22T09:19:54;24.98;;;10.93;;
28335;SDS011;15592;53.656;7.276;2024-03-22T09:22:22;19.70;;;11.45;;
28335;SDS011;15592;53.656;7.276;2024-03-22T09:24:48;23.17;;;11.25;;
28335;SDS011;15592;53.656;7.276;2024-03-22T09:27:13;33.38;;;12.20;;
28335;SDS011;15592;53.656;7.276;2024-03-22T09:29:42;24.67;;;11.70;;
28335;SDS011;15592;53.656;7.276;2024-03-22T09:32:14;20.30;;;10.80;;
28335;SDS011;15592;53.656;7.276;2024-03-22T09:34:40;20.58;;;11.45;;
28335;SDS011;15592;53.656;7.276;2024-03-22T09:37:05;19.02;;;10.63;;
28335;SDS011;15592;53.656;7.276;2024-03-22T09:39:31;26.50;;;11.40;;
28335;SDS011;15592;53.656;7.276;2024-03-22T09:41:57;18.88;;;10.15;;
28335;SDS011;15592;53.656;7.276;2024-03-22T09:44:25;20.42;;;10.00;;
28335;SDS011;15592;53.656;7.276;2024-03-22T09:47:14;16.38;;;9.27;;
28335;SDS011;15592;53.656;7.276;2024-03-22T09:49:46;15.82;;;9.07;;
28335;SDS011;15592;53.656;7.276;2024-03-22T09:52:14;17.98;;;8.90;;
28335;SDS011;15592;53.656;7.276;2024-03-22T09:54:44;17.08;;;8.38;;
28335;SDS011;15592;53.656;7.276;2024-03-22T09:57:13;14.13;;;8.07;;
28335;SDS011;15592;53.656;7.276;2024-03-22T09:59:42;15.88;;;8.60;;
28335;SDS011;15592;53.656;7.276;2024-03-22T10:02:10;13.43;;;7.90;;
28335;SDS011;15592;53.656;7.276;2024-03-22T10:04:40;14.30;;;7.72;;
28335;SDS011;15592;53.656;7.276;2024-03-22T10:07:06;15.93;;;8.85;;
28335;SDS011;15592;53.656;7.276;2024-03-22T10:09:33;12.32;;;7.75;;
28335;SDS011;15592;53.656;7.276;2024-03-22T10:11:59;13.55;;;7.50;;
28335;SDS011;15592;53.656;7.276;2024-03-22T10:14:27;12.07;;;7.15;;
28335;SDS011;15592;53.656;7.276;2024-03-22T10:16:53;8.13;;;5.90;;
28335;SDS011;15592;53.656;7.276;2024-03-22T10:19:20;9.25;;;5.47;;
28335;SDS011;15592;53.656;7.276;2024-03-22T10:21:47;9.45;;;6.20;;
28335;SDS011;15592;53.656;7.276;2024-03-22T10:24:24;7.50;;;4.60;;
28335;SDS011;15592;53.656;7.276;2024-03-22T10:26:49;8.18;;;4.53;;
28335;SDS011;15592;53.656;7.276;2024-03-22T10:29:15;5.55;;;4.25;;
28335;SDS011;15592;53.656;7.276;2024-03-22T10:35:08;5.10;;;3.30;;
28335;SDS011;15592;53.656;7.276;2024-03-22T10:38:12;4.80;;;3.20;;
28335;SDS011;15592;53.656;7.276;2024-03-22T10:40:56;4.78;;;3.00;;
28335;SDS011;15592;53.656;7.276;2024-03-22T10:43:22;3.05;;;2.40;;
28335;SDS011;15592;53.656;7.276;2024-03-22T10:45:50;4.18;;;2.50;;
28335;SDS011;15592;53.656;7.276;2024-03-22T10:48:22;3.08;;;2.15;;
28335;SDS011;15592;53.656;7.276;2024-03-22T10:50:50;2.55;;;2.25;;
28335;SDS011;15592;53.656;7.276;2024-03-22T10:53:20;3.13;;;2.20;;
28335;SDS011;15592;53.656;7.276;2024-03-22T10:55:49;2.30;;;1.92;;
28335;SDS011;15592;53.656;7.276;2024-03-22T10:58:18;3.08;;;2.25;;
28335;SDS011;15592;53.656;7.276;2024-03-22T11:00:46;3.65;;;2.60;;
28335;SDS011;15592;53.656;7.276;2024-03-22T11:03:12;2.60;;;2.10;;
28335;SDS011;15592;53.656;7.276;2024-03-22T11:05:48;5.00;;;2.53;;
28335;SDS011;15592;53.656;7.276;2024-03-22T11:08:25;3.35;;;2.08;;
28335;SDS011;15592;53.656;7.276;2024-03-22T11:10:58;2.88;;;2.13;;
28335;SDS011;15592;53.656;7.276;2024-03-22T11:13:38;6.07;;;2.88;;
28335;SDS011;15592;53.656;7.276;2024-03-22T11:16:04;6.53;;;3.38;;
28335;SDS011;15592;53.656;7.276;2024-03-22T11:18:30;8.13;;;4.05;;
28335;SDS011;15592;53.656;7.276;2024-03-22T11:20:56;5.78;;;3.58;;
28335;SDS011;15592;53.656;7.276;2024-03-22T11:23:22;5.68;;;3.20;;
28335;SDS011;15592;53.656;7.276;2024-03-22T11:25:47;7.88;;;3.70;;
28335;SDS011;15592;53.656;7.276;2024-03-22T11:28:13;6.60;;;3.45;;
28335;SDS011;15592;53.656;7.276;2024-03-22T11:30:39;7.55;;;4.28;;
28335;SDS011;15592;53.656;7.276;2024-03-22T11:33:05;8.13;;;3.80;;
28335;SDS011;15592;53.656;7.276;2024-03-22T11:35:31;6.78;;;3.33;;
28335;SDS011;15592;53.656;7.276;2024-03-22T11:37:56;8.95;;;4.55;;
28335;SDS011;15592;53.656;7.276;2024-03-22T11:40:23;10.98;;;3.80;;
28335;SDS011;15592;53.656;7.276;2024-03-22T11:42:54;10.98;;;4.20;;
28335;SDS011;15592;53.656;7.276;2024-03-22T11:45:21;7.50;;;3.75;;
28335;SDS011;15592;53.656;7.276;2024-03-22T11:47:48;9.10;;;4.05;;
28335;SDS011;15592;53.656;7.276;2024-03-22T11:50:14;7.82;;;4.28;;
28335;SDS011;15592;53.656;7.276;2024-03-22T11:52:40;5.45;;;3.58;;
28335;SDS011;15592;53.656;7.276;2024-03-22T11:55:06;4.88;;;3.05;;
28335;SDS011;15592;53.656;7.276;2024-03-22T11:57:32;8.63;;;3.47;;
28335;SDS011;15592;53.656;7.276;2024-03-22T11:59:58;7.65;;;3.40;;
28335;SDS011;15592;53.656;7.276;2024-03-22T12:02:25;10.38;;;3.70;;
28335;SDS011;15592;53.656;7.276;2024-03-22T12:04:51;11.93;;;4.10;;
28335;SDS011;15592;53.656;7.276;2024-03-22T12:07:17;7.88;;;3.70;;
28335;SDS011;15592;53.656;7.276;2024-03-22T12:09:43;13.20;;;5.00;;
28335;SDS011;15592;53.656;7.276;2024-03-22T12:12:09;6.63;;;3.90;;
28335;SDS011;15592;53.656;7.276;2024-03-22T12:14:36;9.38;;;4.32;;
28335;SDS011;15592;53.656;7.276;2024-03-22T12:17:03;8.80;;;4.65;;
28335;SDS011;15592;53.656;7.276;2024-03-22T12:19:29;10.02;;;4.97;;
28335;SDS011;15592;53.656;7.276;2024-03-22T12:21:55;10.02;;;4.63;;
28335;SDS011;15592;53.656;7.276;2024-03-22T12:24:21;17.95;;;6.18;;
28335;SDS011;15592;53.656;7.276;2024-03-22T12:26:47;13.52;;;5.80;;
28335;SDS011;15592;53.656;7.276;2024-03-22T12:29:15;20.27;;;5.47;;
28335;SDS011;15592;53.656;7.276;2024-03-22T12:31:41;21.33;;;6.95;;
28335;SDS011;15592;53.656;7.276;2024-03-22T12:34:07;20.58;;;6.40;;
28335;SDS011;15592;53.656;7.276;2024-03-22T12:36:33;20.85;;;6.88;;
28335;SDS011;15592;53.656;7.276;2024-03-22T12:38:58;20.25;;;6.07;;
28335;SDS011;15592;53.656;7.276;2024-03-22T12:41:24;12.73;;;5.22;;
28335;SDS011;15592;53.656;7.276;2024-03-22T12:43:50;16.17;;;5.75;;
28335;SDS011;15592;53.656;7.276;2024-03-22T12:46:16;23.05;;;6.45;;
28335;SDS011;15592;53.656;7.276;2024-03-22T12:48:41;23.27;;;6.95;;
28335;SDS011;15592;53.656;7.276;2024-03-22T12:51:07;17.98;;;7.32;;
28335;SDS011;15592;53.656;7.276;2024-03-22T12:53:33;18.02;;;6.18;;
28335;SDS011;15592;53.656;7.276;2024-03-22T12:55:58;19.02;;;6.43;;
28335;SDS011;15592;53.656;7.276;2024-03-22T12:58:24;20.35;;;7.50;;
28335;SDS011;15592;53.656;7.276;2024-03-22T13:00:49;22.08;;;7.30;;
28335;SDS011;15592;53.656;7.276;2024-03-22T13:03:15;17.98;;;6.53;;
28335;SDS011;15592;53.656;7.276;2024-03-22T13:05:41;19.52;;;7.60;;
28335;SDS011;15592;53.656;7.276;2024-03-22T13:08:07;19.80;;;8.07;;
28335;SDS011;15592;53.656;7.276;2024-03-22T13:10:33;16.50;;;5.68;;
28335;SDS011;15592;53.656;7.276;2024-03-22T13:12:58;13.23;;;5.32;;
28335;SDS011;15592;53.656;7.276;2024-03-22T13:15:24;14.52;;;5.47;;
28335;SDS011;15592;53.656;7.276;2024-03-22T13:17:50;13.40;;;5.70;;
28335;SDS011;15592;53.656;7.276;2024-03-22T13:20:17;14.50;;;5.47;;
28335;SDS011;15592;53.656;7.276;2024-03-22T13:22:43;13.65;;;4.85;;
28335;SDS011;15592;53.656;7.276;2024-03-22T13:25:09;13.30;;;5.15;;
28335;SDS011;15592;53.656;7.276;2024-03-22T13:27:36;12.80;;;4.13;;
28335;SDS011;15592;53.656;7.276;2024-03-22T13:30:04;13.57;;;4.70;;
28335;SDS011;15592;53.656;7.276;2024-03-22T13:32:34;11.98;;;4.13;;
28335;SDS011;15592;53.656;7.276;2024-03-22T13:35:01;14.23;;;4.45;;
28335;SDS011;15592;53.656;7.276;2024-03-22T13:37:27;11.48;;;3.97;;
28335;SDS011;15592;53.656;7.276;2024-03-22T13:39:52;12.55;;;4.80;;
28335;SDS011;15592;53.656;7.276;2024-03-22T13:42:18;11.93;;;4.38;;
28335;SDS011;15592;53.656;7.276;2024-03-22T13:44:44;9.15;;;3.53;;
28335;SDS011;15592;53.656;7.276;2024-03-22T13:47:10;8.65;;;3.70;;
28335;SDS011;15592;53.656;7.276;2024-03-22T13:49:35;6.57;;;3.50;;
28335;SDS011;15592;53.656;7.276;2024-03-22T13:52:01;10.40;;;3.15;;
28335;SDS011;15592;53.656;7.276;2024-03-22T13:54:27;8.75;;;3.53;;
28335;SDS011;15592;53.656;7.276;2024-03-22T13:56:53;6.35;;;3.42;;
28335;SDS011;15592;53.656;7.276;2024-03-22T13:59:18;9.07;;;3.30;;
28335;SDS011;15592;53.656;7.276;2024-03-22T14:01:44;7.97;;;3.60;;
28335;SDS011;15592;53.656;7.276;2024-03-22T14:04:12;8.90;;;3.42;;
28335;SDS011;15592;53.656;7.276;2024-03-22T14:06:38;7.45;;;3.42;;
28335;SDS011;15592;53.656;7.276;2024-03-22T14:09:03;9.18;;;3.28;;
28335;SDS011;15592;53.656;7.276;2024-03-22T14:11:30;6.40;;;3.20;;
28335;SDS011;15592;53.656;7.276;2024-03-22T14:13:59;10.40;;;3.35;;
28335;SDS011;15592;53.656;7.276;2024-03-22T14:16:24;19.83;;;4.93;;
28335;SDS011;15592;53.656;7.276;2024-03-22T14:18:50;14.52;;;4.30;;
28335;SDS011;15592;53.656;7.276;2024-03-22T14:21:17;9.35;;;3.47;;
28335;SDS011;15592;53.656;7.276;2024-03-22T14:23:51;10.07;;;3.63;;
28335;SDS011;15592;53.656;7.276;2024-03-22T14:26:17;8.45;;;3.47;;
28335;SDS011;15592;53.656;7.276;2024-03-22T14:28:43;9.20;;;3.40;;
28335;SDS011;15592;53.656;7.276;2024-03-22T14:31:09;7.63;;;2.90;;
28335;SDS011;15592;53.656;7.276;2024-03-22T14:33:36;7.20;;;2.90;;
28335;SDS011;15592;53.656;7.276;2024-03-22T14:36:03;8.65;;;2.78;;
28335;SDS011;15592;53.656;7.276;2024-03-22T14:38:29;6.03;;;3.13;;
28335;SDS011;15592;53.656;7.276;2024-03-22T14:40:55;9.10;;;3.15;;
28335;SDS011;15592;53.656;7.276;2024-03-22T14:43:22;8.93;;;2.88;;
28335;SDS011;15592;53.656;7.276;2024-03-22T14:45:51;9.07;;;2.47;;
28335;SDS011;15592;53.656;7.276;2024-03-22T14:48:20;9.38;;;2.95;;
28335;SDS011;15592;53.656;7.276;2024-03-22T14:50:47;8.57;;;3.35;;
28335;SDS011;15592;53.656;7.276;2024-03-22T14:53:13;6.90;;;2.65;;
28335;SDS011;15592;53.656;7.276;2024-03-22T14:55:39;11.52;;;2.90;;
28335;SDS011;15592;53.656;7.276;2024-03-22T14:58:06;11.23;;;3.35;;
28335;SDS011;15592;53.656;7.276;2024-03-22T15:00:31;10.32;;;3.17;;
28335;SDS011;15592;53.656;7.276;2024-03-22T15:02:58;8.15;;;2.60;;
28335;SDS011;15592;53.656;7.276;2024-03-22T15:05:24;9.88;;;3.80;;
28335;SDS011;15592;53.656;7.276;2024-03-22T15:07:50;8.75;;;2.70;;
28335;SDS011;15592;53.656;7.276;2024-03-22T15:10:15;8.52;;;2.47;;
28335;SDS011;15592;53.656;7.276;2024-03-22T15:12:41;7.78;;;2.47;;
28335;SDS011;15592;53.656;7.276;2024-03-22T15:15:08;9.95;;;2.50;;
28335;SDS011;15592;53.656;7.276;2024-03-22T15:17:34;8.77;;;3.05;;
28335;SDS011;15592;53.656;7.276;2024-03-22T15:20:00;10.30;;;2.72;;
28335;SDS011;15592;53.656;7.276;2024-03-22T15:22:25;7.40;;;3.25;;